Time;durP1;ratioP1;P1;durP2;ratioP2;P2;SDS_P1;SDS_P2;PMS_P1;PMS_P2;Temp;Humidity;BMP_temperature;BMP_pressure;BME280_temperature;BME280_humidity;BME280_pressure;Samples;Min_cycle;Max_cycle;Signal;HPM_P1;HPM_P2
2022/04/08 01:09:04;;;;;;;2.42;0.82;;;;;;;;;;5600619;22;20047;-76
2022/04/08 01:11:30;;;;;;;3.60;0.80;;;;;;;;;;4976989;28;20030;-76
2022/04/08 01:13:55;;;;;;;5.20;1.25;;;;;;;;;;4977519;28;20023;-76
2022/04/08 01:16:21;;;;;;;5.20;1.00;;;;;;;;;;4978842;28;20351;-76
2022/04/08 01:18:46;;;;;;;4.82;0.75;;;;;;;;;;4975791;28;20050;-75
2022/04/08 01:21:11;;;;;;;4.75;0.95;;;;;;;;;;4977355;28;20530;-76
2022/04/08 01:23:36;;;;;;;5.50;1.02;;;;;;;;;;4975998;28;20418;-76
2022/04/08 01:26:06;;;;;;;3.30;0.80;;;;;;;;;;4977250;28;20023;-76
2022/04/08 01:28:31;;;;;;;5.63;1.00;;;;;;;;;;4979519;28;20026;-75
2022/04/08 01:30:56;;;;;;;3.13;0.88;;;;;;;;;;4977898;28;20114;-75
2022/04/08 01:33:21;;;;;;;1.88;0.70;;;;;;;;;;4978142;28;20022;-75
2022/04/08 01:35:49;;;;;;;4.10;0.70;;;;;;;;;;4977815;28;20022;-75
2022/04/08 01:38:15;;;;;;;3.90;0.90;;;;;;;;;;4978720;28;20022;-74
2022/04/08 01:40:40;;;;;;;3.85;0.93;;;;;;;;;;4976538;28;20367;-75
2022/04/08 01:43:05;;;;;;;4.22;1.05;;;;;;;;;;4978235;28;20030;-76
2022/04/08 01:45:30;;;;;;;4.72;1.10;;;;;;;;;;4977229;28;20023;-75
2022/04/08 01:47:56;;;;;;;6.15;1.10;;;;;;;;;;4977433;28;20031;-75
2022/04/08 01:50:22;;;;;;;5.72;0.90;;;;;;;;;;4977669;28;20509;-77
2022/04/08 01:52:47;;;;;;;1.75;0.82;;;;;;;;;;4977149;28;20474;-76
2022/04/08 01:55:13;;;;;;;2.35;0.70;;;;;;;;;;4977308;28;20471;-75
2022/04/08 01:57:38;;;;;;;3.83;1.10;;;;;;;;;;4975424;28;20490;-74
2022/04/08 02:00:04;;;;;;;4.75;1.00;;;;;;;;;;4976813;28;20023;-75
2022/04/08 02:02:29;;;;;;;5.13;0.90;;;;;;;;;;4977123;28;20077;-76
2022/04/08 02:04:54;;;;;;;2.78;0.82;;;;;;;;;;4978542;28;20065;-76
2022/04/08 02:07:19;;;;;;;3.53;1.20;;;;;;;;;;4976777;28;20078;-75
2022/04/08 02:09:45;;;;;;;2.30;1.00;;;;;;;;;;4976191;28;20042;-75
2022/04/08 02:12:10;;;;;;;1.75;0.85;;;;;;;;;;4976407;28;20033;-76
2022/04/08 02:14:36;;;;;;;1.23;0.60;;;;;;;;;;4976049;28;20050;-75
2022/04/08 02:17:01;;;;;;;1.92;0.70;;;;;;;;;;4976886;28;20015;-76
2022/04/08 02:19:26;;;;;;;2.83;0.70;;;;;;;;;;4976200;28;20019;-76
2022/04/08 02:21:51;;;;;;;3.10;1.13;;;;;;;;;;4977049;28;20057;-76
2022/04/08 02:24:16;;;;;;;3.72;1.02;;;;;;;;;;4975649;28;20018;-75
2022/04/08 02:26:42;;;;;;;6.32;1.10;;;;;;;;;;4976441;28;20118;-76
2022/04/08 02:29:07;;;;;;;3.78;1.10;;;;;;;;;;4978448;28;20023;-75
2022/04/08 02:31:32;;;;;;;5.63;1.10;;;;;;;;;;4976815;28;20023;-75
2022/04/08 02:33:58;;;;;;;3.88;0.93;;;;;;;;;;4976890;28;20034;-76
2022/04/08 02:36:23;;;;;;;4.43;1.40;;;;;;;;;;4977627;28;20034;-76
2022/04/08 02:38:48;;;;;;;2.97;0.88;;;;;;;;;;4979610;28;20141;-75
2022/04/08 02:41:14;;;;;;;2.53;0.90;;;;;;;;;;4980044;28;20474;-75
2022/04/08 02:43:39;;;;;;;4.20;1.42;;;;;;;;;;4979361;28;20023;-75
2022/04/08 02:46:04;;;;;;;2.83;0.98;;;;;;;;;;4976115;28;20046;-76
2022/04/08 02:48:29;;;;;;;3.88;1.30;;;;;;;;;;4975804;28;20019;-75
2022/04/08 02:50:54;;;;;;;5.57;1.10;;;;;;;;;;4975889;28;20490;-75
2022/04/08 02:53:19;;;;;;;2.83;1.38;;;;;;;;;;4977288;28;20035;-75
2022/04/08 02:55:45;;;;;;;3.58;1.10;;;;;;;;;;4975260;28;20106;-75
2022/04/08 02:58:10;;;;;;;2.10;1.02;;;;;;;;;;4973729;28;20382;-76
2022/04/08 03:00:35;;;;;;;2.83;1.20;;;;;;;;;;4975231;28;20025;-76
2022/04/08 03:03:03;;;;;;;5.47;1.27;;;;;;;;;;4975107;28;20027;-74
2022/04/08 03:05:29;;;;;;;3.92;1.30;;;;;;;;;;4976314;28;20022;-74
2022/04/08 03:07:54;;;;;;;3.90;1.23;;;;;;;;;;4974954;28;20031;-76
2022/04/08 03:10:19;;;;;;;3.90;0.90;;;;;;;;;;4974903;28;20045;-75
2022/04/08 03:12:44;;;;;;;7.68;1.38;;;;;;;;;;4975100;28;20023;-76
2022/04/08 03:15:11;;;;;;;3.70;1.30;;;;;;;;;;4973889;28;20549;-75
2022/04/08 03:17:37;;;;;;;2.83;1.15;;;;;;;;;;4976476;28;20482;-76
2022/04/08 03:20:02;;;;;;;3.83;1.10;;;;;;;;;;4974996;28;20061;-75
2022/04/08 03:22:27;;;;;;;4.20;1.00;;;;;;;;;;4975419;28;20106;-76
2022/04/08 03:24:54;;;;;;;2.78;1.10;;;;;;;;;;4975448;28;20015;-76
2022/04/08 03:27:19;;;;;;;4.90;1.38;;;;;;;;;;4973902;28;20019;-75
2022/04/08 03:29:44;;;;;;;6.25;1.50;;;;;;;;;;4975858;28;20033;-75
2022/04/08 03:32:10;;;;;;;2.85;1.48;;;;;;;;;;4973425;28;20018;-75
2022/04/08 03:34:35;;;;;;;2.08;0.93;;;;;;;;;;4974402;28;20018;-75
2022/04/08 03:37:01;;;;;;;4.40;1.45;;;;;;;;;;4974824;28;20070;-76
2022/04/08 03:39:26;;;;;;;6.05;1.05;;;;;;;;;;4974075;28;20541;-75
2022/04/08 03:41:53;;;;;;;4.63;1.27;;;;;;;;;;4975696;28;20019;-76
2022/04/08 03:44:18;;;;;;;5.47;1.10;;;;;;;;;;4974917;28;20076;-76
2022/04/08 03:46:45;;;;;;;4.40;1.30;;;;;;;;;;4974480;28;20105;-77
2022/04/08 03:49:14;;;;;;;6.32;1.55;;;;;;;;;;4973135;28;20023;-76
2022/04/08 03:51:39;;;;;;;8.40;1.40;;;;;;;;;;4974570;28;20019;-75
2022/04/08 03:54:05;;;;;;;4.03;1.33;;;;;;;;;;4975114;28;20053;-77
2022/04/08 03:56:30;;;;;;;3.83;1.23;;;;;;;;;;4975499;28;20015;-76
2022/04/08 03:59:01;;;;;;;3.63;1.10;;;;;;;;;;4972980;28;20046;-76
2022/04/08 04:01:26;;;;;;;4.95;1.50;;;;;;;;;;4973195;28;20018;-75
2022/04/08 04:03:52;;;;;;;3.08;1.45;;;;;;;;;;4974282;28;20035;-77
2022/04/08 04:06:17;;;;;;;3.42;1.40;;;;;;;;;;4974707;28;20101;-76
2022/04/08 04:08:42;;;;;;;5.47;1.30;;;;;;;;;;4974535;28;20027;-75
2022/04/08 04:11:07;;;;;;;3.78;1.60;;;;;;;;;;4975490;28;20037;-75
2022/04/08 04:13:33;;;;;;;6.38;1.50;;;;;;;;;;4974302;28;20015;-76
2022/04/08 04:15:59;;;;;;;4.78;1.35;;;;;;;;;;4972231;28;20486;-75
2022/04/08 04:18:26;;;;;;;5.97;1.55;;;;;;;;;;4974362;28;20018;-75
2022/04/08 04:20:52;;;;;;;4.28;1.67;;;;;;;;;;4974474;28;20044;-75
2022/04/08 04:23:17;;;;;;;5.68;1.42;;;;;;;;;;4973754;28;20015;-75
2022/04/08 04:25:45;;;;;;;7.63;1.52;;;;;;;;;;4974059;28;20014;-75
2022/04/08 04:28:11;;;;;;;5.47;1.55;;;;;;;;;;4973715;28;20508;-75
2022/04/08 04:30:36;;;;;;;4.05;1.50;;;;;;;;;;4974404;28;20109;-75
2022/04/08 04:33:01;;;;;;;2.85;1.42;;;;;;;;;;4974900;28;20054;-76
2022/04/08 04:35:27;;;;;;;5.25;1.42;;;;;;;;;;4973296;28;20065;-77
2022/04/08 04:37:52;;;;;;;3.30;1.40;;;;;;;;;;4974158;28;20026;-76
2022/04/08 04:40:18;;;;;;;6.70;1.35;;;;;;;;;;4973316;28;20614;-76
2022/04/08 04:42:43;;;;;;;5.65;1.30;;;;;;;;;;4976524;28;20023;-76
2022/04/08 04:45:09;;;;;;;2.70;1.30;;;;;;;;;;4973532;28;20390;-76
2022/04/08 04:47:34;;;;;;;3.42;1.40;;;;;;;;;;4973521;28;20436;-75
2022/04/08 04:50:00;;;;;;;3.08;1.05;;;;;;;;;;4975673;28;20034;-77
2022/04/08 04:52:25;;;;;;;3.22;1.35;;;;;;;;;;4975167;28;20023;-76
2022/04/08 04:54:50;;;;;;;1.50;0.96;;;;;;;;;;4976304;28;20019;-76
2022/04/08 04:57:17;;;;;;;4.25;1.15;;;;;;;;;;4976490;28;20031;-75
2022/04/08 04:59:42;;;;;;;5.38;1.27;;;;;;;;;;4974678;28;20114;-75
2022/04/08 05:02:10;;;;;;;5.18;1.27;;;;;;;;;;4974633;28;20101;-74
2022/04/08 05:04:36;;;;;;;3.63;1.30;;;;;;;;;;4972974;28;20466;-75
2022/04/08 05:07:01;;;;;;;5.47;1.23;;;;;;;;;;4974119;28;20086;-76
2022/04/08 05:09:26;;;;;;;2.60;1.10;;;;;;;;;;4974402;28;20129;-75
2022/04/08 05:11:51;;;;;;;5.85;1.30;;;;;;;;;;4974753;28;20057;-77
2022/04/08 05:14:16;;;;;;;6.93;1.40;;;;;;;;;;4973837;28;20497;-76
2022/04/08 05:16:42;;;;;;;5.32;1.17;;;;;;;;;;4975551;28;20023;-76
2022/04/08 05:19:07;;;;;;;4.35;1.10;;;;;;;;;;4974643;28;20019;-77
2022/04/08 05:21:33;;;;;;;4.28;1.08;;;;;;;;;;4972401;28;20029;-76
2022/04/08 05:23:59;;;;;;;3.08;1.20;;;;;;;;;;4973477;28;20022;-77
2022/04/08 05:26:24;;;;;;;7.78;1.40;;;;;;;;;;4973931;28;20018;-76
2022/04/08 05:28:49;;;;;;;8.20;1.17;;;;;;;;;;4977007;28;20035;-76
2022/04/08 05:31:14;;;;;;;4.95;1.00;;;;;;;;;;4977724;28;20058;-76
2022/04/08 05:33:40;;;;;;;2.65;1.20;;;;;;;;;;4978181;28;20025;-76
2022/04/08 05:36:05;;;;;;;2.75;1.10;;;;;;;;;;4977676;28;20023;-77
2022/04/08 05:38:31;;;;;;;6.78;1.00;;;;;;;;;;4978311;28;20098;-76
2022/04/08 05:40:56;;;;;;;3.05;0.90;;;;;;;;;;4977475;28;20413;-77
2022/04/08 05:43:21;;;;;;;2.05;0.88;;;;;;;;;;4977337;28;20077;-76
2022/04/08 05:45:46;;;;;;;3.25;1.08;;;;;;;;;;4977415;28;20014;-76
2022/04/08 05:48:12;;;;;;;3.25;1.10;;;;;;;;;;4976087;28;20023;-77
2022/04/08 05:50:37;;;;;;;3.55;1.10;;;;;;;;;;4976857;28;20479;-77
2022/04/08 05:53:03;;;;;;;8.98;1.95;;;;;;;;;;4976740;28;20038;-76
2022/04/08 05:55:28;;;;;;;3.60;1.00;;;;;;;;;;4978037;28;20106;-74
2022/04/08 05:57:55;;;;;;;6.82;1.83;;;;;;;;;;4976594;28;20462;-76
2022/04/08 06:00:21;;;;;;;3.03;0.90;;;;;;;;;;4976944;28;20031;-75
2022/04/08 06:02:47;;;;;;;5.20;1.48;;;;;;;;;;4976510;28;20490;-77
2022/04/08 06:05:15;;;;;;;3.53;1.05;;;;;;;;;;4976948;28;20023;-76
2022/04/08 06:07:47;;;;;;;3.78;1.00;;;;;;;;;;4975840;28;20042;-76
2022/04/08 06:10:13;;;;;;;4.32;1.20;;;;;;;;;;4976990;28;20030;-76
2022/04/08 06:12:39;;;;;;;4.80;0.80;;;;;;;;;;4978279;28;20413;-77
2022/04/08 06:15:04;;;;;;;3.15;0.85;;;;;;;;;;4977721;28;20426;-77
2022/04/08 06:17:37;;;;;;;6.70;1.20;;;;;;;;;;4977112;28;20066;-76
2022/04/08 06:20:02;;;;;;;2.05;0.80;;;;;;;;;;4975538;28;20026;-77
2022/04/08 06:22:28;;;;;;;4.32;1.05;;;;;;;;;;4976444;28;20027;-76
2022/04/08 06:24:53;;;;;;;2.60;0.82;;;;;;;;;;4976181;28;20034;-76
2022/04/08 06:27:21;;;;;;;6.47;1.20;;;;;;;;;;4976144;28;20030;-75
2022/04/08 06:29:46;;;;;;;2.47;1.02;;;;;;;;;;4975512;28;20023;-75
2022/04/08 06:32:11;;;;;;;6.32;1.25;;;;;;;;;;4979445;28;20046;-77
2022/04/08 06:34:36;;;;;;;3.28;0.93;;;;;;;;;;4976608;28;20019;-76
2022/04/08 06:37:01;;;;;;;3.25;0.90;;;;;;;;;;4976392;28;20437;-76
2022/04/08 06:39:27;;;;;;;2.85;1.00;;;;;;;;;;4975642;28;20027;-77
2022/04/08 06:41:52;;;;;;;4.40;1.20;;;;;;;;;;4976703;28;20057;-76
2022/04/08 06:44:17;;;;;;;6.03;1.25;;;;;;;;;;4977316;28;20081;-76
2022/04/08 06:46:42;;;;;;;4.63;1.10;;;;;;;;;;4977692;28;20025;-77
2022/04/08 06:49:07;;;;;;;4.03;0.95;;;;;;;;;;4977085;28;20023;-76
2022/04/08 06:51:33;;;;;;;4.57;0.57;;;;;;;;;;4977153;28;20015;-75
2022/04/08 06:53:58;;;;;;;3.70;0.70;;;;;;;;;;4976520;28;20058;-75
2022/04/08 06:56:23;;;;;;;3.42;0.68;;;;;;;;;;4976193;28;20046;-77
2022/04/08 06:58:50;;;;;;;2.28;0.77;;;;;;;;;;4974571;28;20344;-76
2022/04/08 07:01:15;;;;;;;3.00;0.90;;;;;;;;;;4975263;28;20386;-77
2022/04/08 07:03:40;;;;;;;7.03;1.10;;;;;;;;;;4976336;28;20014;-76
2022/04/08 07:06:05;;;;;;;3.20;1.00;;;;;;;;;;4975462;28;20437;-76
2022/04/08 07:08:31;;;;;;;2.00;0.60;;;;;;;;;;4978345;28;20023;-75
2022/04/08 07:10:57;;;;;;;1.67;0.80;;;;;;;;;;4976278;28;20122;-75
2022/04/08 07:13:22;;;;;;;1.70;0.75;;;;;;;;;;4975688;28;20058;-76
2022/04/08 07:15:47;;;;;;;2.92;0.77;;;;;;;;;;4976117;28;20073;-76
2022/04/08 07:18:12;;;;;;;1.63;0.73;;;;;;;;;;4974318;28;20077;-76
2022/04/08 07:20:38;;;;;;;3.25;1.15;;;;;;;;;;4976799;28;20014;-76
2022/04/08 07:23:05;;;;;;;4.13;1.30;;;;;;;;;;4977441;28;20093;-76
2022/04/08 07:25:30;;;;;;;7.80;1.38;;;;;;;;;;4977914;28;20023;-75
2022/04/08 07:28:01;;;;;;;3.95;1.20;;;;;;;;;;4976272;28;20370;-75
2022/04/08 07:30:27;;;;;;;3.97;0.90;;;;;;;;;;4975930;28;20105;-76
2022/04/08 07:32:54;;;;;;;5.10;1.33;;;;;;;;;;4976239;28;20442;-76
2022/04/08 07:35:19;;;;;;;3.78;1.15;;;;;;;;;;4976441;28;20057;-77
2022/04/08 07:37:45;;;;;;;2.03;0.82;;;;;;;;;;4976290;28;20034;-76
2022/04/08 07:40:11;;;;;;;1.38;0.70;;;;;;;;;;4976168;28;20019;-76
2022/04/08 07:42:37;;;;;;;2.45;0.90;;;;;;;;;;4977520;28;20027;-77
2022/04/08 07:45:03;;;;;;;1.08;0.68;;;;;;;;;;4976193;28;20019;-75
2022/04/08 07:47:32;;;;;;;2.45;0.90;;;;;;;;;;4976737;28;20022;-75
2022/04/08 07:49:57;;;;;;;;;;;;;;;;;;4976383;28;20047;-75
2022/04/08 07:52:23;;;;;;;5.63;1.02;;;;;;;;;;4973996;28;19913;-76
2022/04/08 07:54:48;;;;;;;3.83;1.00;;;;;;;;;;4975421;28;20509;-76
2022/04/08 07:57:13;;;;;;;4.40;0.80;;;;;;;;;;4975792;28;20072;-77
2022/04/08 07:59:38;;;;;;;3.50;0.88;;;;;;;;;;4974360;28;20394;-76
2022/04/08 08:02:04;;;;;;;5.80;1.08;;;;;;;;;;4975901;28;20466;-77
2022/04/08 08:04:38;;;;;;;2.53;0.63;;;;;;;;;;4975659;28;20598;-76
2022/04/08 08:07:03;;;;;;;5.90;1.60;;;;;;;;;;4977061;28;20018;-76
2022/04/08 08:09:29;;;;;;;3.22;0.50;;;;;;;;;;4976672;28;20037;-78
2022/04/08 08:11:54;;;;;;;4.22;0.70;;;;;;;;;;4975208;28;20033;-76
2022/04/08 08:14:19;;;;;;;3.38;0.80;;;;;;;;;;4977083;28;20115;-77
2022/04/08 08:16:44;;;;;;;3.65;0.90;;;;;;;;;;4978371;28;20038;-76
2022/04/08 08:19:09;;;;;;;5.95;0.70;;;;;;;;;;4976563;28;20070;-76
2022/04/08 08:21:34;;;;;;;2.95;0.70;;;;;;;;;;4974536;28;20606;-77
2022/04/08 08:24:00;;;;;;;2.92;0.93;;;;;;;;;;4976731;28;20026;-77
2022/04/08 08:26:25;;;;;;;3.20;0.93;;;;;;;;;;4977296;28;20034;-77
2022/04/08 08:28:52;;;;;;;7.22;1.02;;;;;;;;;;4977487;28;20022;-78
2022/04/08 08:31:17;;;;;;;3.45;0.90;;;;;;;;;;4977178;28;20022;-76
2022/04/08 08:33:46;;;;;;;2.72;0.80;;;;;;;;;;4977426;28;20082;-78
2022/04/08 08:36:11;;;;;;;;;;;;;;;;;;4978470;28;20027;-77
2022/04/08 08:38:36;;;;;;;2.55;0.70;;;;;;;;;;4975323;28;19910;-77
2022/04/08 08:41:02;;;;;;;6.53;1.20;;;;;;;;;;4972870;28;20344;-77
2022/04/08 08:43:27;;;;;;;2.88;0.80;;;;;;;;;;4974198;28;20025;-76
2022/04/08 08:45:55;;;;;;;2.03;0.73;;;;;;;;;;4975255;28;20073;-77
2022/04/08 08:48:21;;;;;;;4.20;0.90;;;;;;;;;;4976416;28;20496;-77
2022/04/08 08:50:47;;;;;;;2.78;0.90;;;;;;;;;;4977035;28;20015;-77
2022/04/08 08:53:16;;;;;;;7.68;1.10;;;;;;;;;;4978962;28;20037;-76
2022/04/08 08:55:42;;;;;;;4.28;0.90;;;;;;;;;;4977574;28;20035;-76
2022/04/08 08:58:07;;;;;;;2.35;1.13;;;;;;;;;;4977955;28;20021;-76
2022/04/08 09:00:35;;;;;;;6.43;1.10;;;;;;;;;;4977310;28;20023;-76
2022/04/08 09:03:00;;;;;;;6.45;1.67;;;;;;;;;;4980958;28;20102;-77
2022/04/08 09:05:26;;;;;;;2.05;0.80;;;;;;;;;;4981819;28;20050;-76
2022/04/08 09:08:00;;;;;;;3.80;1.00;;;;;;;;;;4981763;28;20102;-76
2022/04/08 09:10:26;;;;;;;3.03;0.93;;;;;;;;;;4980989;28;20576;-77
2022/04/08 09:12:55;;;;;;;2.90;1.08;;;;;;;;;;4982286;28;20117;-77
2022/04/08 09:15:20;;;;;;;;;;;;;;;;;;4983834;28;20522;-76
2022/04/08 09:17:45;;;;;;;7.88;1.10;;;;;;;;;;4984342;28;20400;-77
2022/04/08 09:20:11;;;;;;;5.10;1.00;;;;;;;;;;4983648;28;20065;-77
2022/04/08 09:22:37;;;;;;;5.15;1.10;;;;;;;;;;4980853;28;20486;-77
2022/04/08 09:25:08;;;;;;;3.97;0.85;;;;;;;;;;4978742;28;20029;-79
2022/04/08 09:27:34;;;;;;;4.82;1.00;;;;;;;;;;4978744;28;20089;-78
2022/04/08 09:29:59;;;;;;;3.25;1.00;;;;;;;;;;4981655;28;20490;-77
2022/04/08 09:32:25;;;;;;;2.95;0.95;;;;;;;;;;4982437;28;20062;-76
2022/04/08 09:34:51;;;;;;;4.45;0.93;;;;;;;;;;4980972;28;20023;-78
2022/04/08 09:37:17;;;;;;;6.75;1.42;;;;;;;;;;4982695;28;20022;-76
2022/04/08 09:39:56;;;;;;;5.68;0.90;;;;;;;;;;4982022;28;20022;-77
2022/04/08 09:42:21;;;;;;;4.82;1.00;;;;;;;;;;4981264;28;20382;-76
2022/04/08 09:44:47;;;;;;;3.00;1.00;;;;;;;;;;4983064;28;20019;-77
2022/04/08 09:47:13;;;;;;;6.07;1.30;;;;;;;;;;4981437;28;20023;-78
2022/04/08 09:49:38;;;;;;;2.83;0.80;;;;;;;;;;4977359;28;20026;-77
2022/04/08 09:52:05;;;;;;;4.38;0.73;;;;;;;;;;4980106;28;20023;-78
2022/04/08 09:54:32;;;;;;;4.97;1.17;;;;;;;;;;4980735;28;20023;-78
2022/04/08 09:56:58;;;;;;;5.72;0.93;;;;;;;;;;4982141;28;20033;-77
2022/04/08 09:59:26;;;;;;;3.75;1.20;;;;;;;;;;4980484;28;20022;-77
2022/04/08 10:01:52;;;;;;;5.25;1.35;;;;;;;;;;4979627;28;20030;-76
2022/04/08 10:04:19;;;;;;;4.03;0.88;;;;;;;;;;4981374;28;20022;-77
2022/04/08 10:06:44;;;;;;;6.22;1.17;;;;;;;;;;4981456;28;20039;-77
2022/04/08 10:09:11;;;;;;;5.35;1.20;;;;;;;;;;4980891;28;20030;-76
2022/04/08 10:11:47;;;;;;;5.22;1.20;;;;;;;;;;4981453;28;20022;-77
2022/04/08 10:14:23;;;;;;;5.63;0.93;;;;;;;;;;4977623;28;20402;-77
2022/04/08 10:16:51;;;;;;;4.53;0.90;;;;;;;;;;4979978;28;20023;-76
2022/04/08 10:19:17;;;;;;;4.80;1.13;;;;;;;;;;4980420;28;20042;-77
2022/04/08 10:21:53;;;;;;;4.15;1.00;;;;;;;;;;4980231;28;20058;-78
2022/04/08 10:24:23;;;;;;;4.75;0.98;;;;;;;;;;4978426;28;20042;-78
2022/04/08 10:27:09;;;;;;;3.47;1.10;;;;;;;;;;4977892;28;20102;-76
2022/04/08 10:29:34;;;;;;;5.43;1.45;;;;;;;;;;4979625;28;20011;-77
2022/04/08 10:32:02;;;;;;;3.92;1.00;;;;;;;;;;4976744;28;20019;-78
2022/04/08 10:34:29;;;;;;;6.10;1.10;;;;;;;;;;4976562;28;20019;-81
2022/04/08 10:36:54;;;;;;;5.43;1.10;;;;;;;;;;4976254;28;20057;-77
2022/04/08 10:39:20;;;;;;;4.80;1.08;;;;;;;;;;4975961;28;20046;-77
2022/04/08 10:41:47;;;;;;;3.90;1.00;;;;;;;;;;4975203;28;20026;-76
2022/04/08 10:44:12;;;;;;;6.32;1.20;;;;;;;;;;4975888;28;20051;-76
2022/04/08 10:46:47;;;;;;;3.90;1.08;;;;;;;;;;4976598;28;20102;-77
2022/04/08 10:49:15;;;;;;;5.57;1.50;;;;;;;;;;4975252;28;20038;-76
2022/04/08 10:51:44;;;;;;;6.50;1.70;;;;;;;;;;4977209;28;20041;-76
2022/04/08 10:54:11;;;;;;;5.07;1.40;;;;;;;;;;4979633;28;20033;-77
2022/04/08 10:56:37;;;;;;;3.70;1.45;;;;;;;;;;4980283;28;20082;-77
2022/04/08 10:59:03;;;;;;;5.97;1.27;;;;;;;;;;4979308;28;20061;-76
2022/04/08 11:01:28;;;;;;;6.38;1.30;;;;;;;;;;4979222;28;20394;-77
2022/04/08 11:04:01;;;;;;;7.78;1.20;;;;;;;;;;4979538;28;20094;-77
2022/04/08 11:06:26;;;;;;;4.82;1.40;;;;;;;;;;4977868;28;20077;-77
2022/04/08 11:08:52;;;;;;;5.63;1.45;;;;;;;;;;4977482;28;20034;-77
2022/04/08 11:11:26;;;;;;;3.47;1.00;;;;;;;;;;4975867;28;20485;-76
2022/04/08 11:13:59;;;;;;;5.65;1.65;;;;;;;;;;4977446;28;20023;-76
2022/04/08 11:16:29;;;;;;;2.42;0.98;;;;;;;;;;4977873;28;20086;-76
2022/04/08 11:18:54;;;;;;;7.13;1.42;;;;;;;;;;4979280;28;20434;-76
2022/04/08 11:21:21;;;;;;;5.20;1.40;;;;;;;;;;4974974;28;20073;-76
2022/04/08 11:24:02;;;;;;;3.60;1.08;;;;;;;;;;4978692;28;20023;-77
2022/04/08 11:26:28;;;;;;;4.72;1.38;;;;;;;;;;4977804;28;20387;-77
2022/04/08 11:28:54;;;;;;;5.22;1.35;;;;;;;;;;4974959;28;20018;-77
2022/04/08 11:31:20;;;;;;;5.78;1.13;;;;;;;;;;4977829;28;20164;-77
2022/04/08 11:33:47;;;;;;;5.95;1.33;;;;;;;;;;4982703;28;20497;-77
2022/04/08 11:36:12;;;;;;;5.85;1.42;;;;;;;;;;4980119;28;20023;-75
2022/04/08 11:38:37;;;;;;;6.00;1.38;;;;;;;;;;4974454;28;20367;-75
2022/04/08 11:41:04;;;;;;;5.95;1.50;;;;;;;;;;4975819;28;20445;-76
2022/04/08 11:43:29;;;;;;;2.50;1.00;;;;;;;;;;4976719;28;20042;-79
2022/04/08 11:45:54;;;;;;;3.10;1.10;;;;;;;;;;4975928;28;20022;-77
2022/04/08 11:48:20;;;;;;;2.42;1.20;;;;;;;;;;4977713;28;20050;-75
2022/04/08 11:50:46;;;;;;;5.10;1.30;;;;;;;;;;4975872;28;20558;-75
2022/04/08 11:53:18;;;;;;;3.88;1.30;;;;;;;;;;4976519;28;20046;-75
2022/04/08 11:55:56;;;;;;;5.53;1.13;;;;;;;;;;4977451;28;20030;-76
2022/04/08 11:58:22;;;;;;;3.45;1.50;;;;;;;;;;4977994;28;20023;-77
2022/04/08 12:00:48;;;;;;;6.75;1.63;;;;;;;;;;4977578;28;20498;-77
2022/04/08 12:03:17;;;;;;;6.53;1.92;;;;;;;;;;4979993;28;20034;-76
2022/04/08 12:05:42;;;;;;;;;;;;;;;;;;4978149;28;20034;-77
2022/04/08 12:08:10;;;;;;;4.82;1.50;;;;;;;;;;4973662;28;19906;-76
2022/04/08 12:10:36;;;;;;;3.28;1.40;;;;;;;;;;4972869;28;20533;-77
2022/04/08 12:13:11;;;;;;;3.45;1.60;;;;;;;;;;4977750;28;20081;-77
2022/04/08 12:15:40;;;;;;;4.30;1.77;;;;;;;;;;4980480;28;20027;-80
2022/04/08 12:18:06;;;;;;;5.47;1.50;;;;;;;;;;4975269;28;20026;-77
2022/04/08 12:20:31;;;;;;;3.85;1.45;;;;;;;;;;4974814;28;20030;-75
2022/04/08 12:22:57;;;;;;;4.38;1.75;;;;;;;;;;4974150;28;20019;-76
2022/04/08 12:25:22;;;;;;;4.82;1.80;;;;;;;;;;4977015;28;20030;-78
2022/04/08 12:27:52;;;;;;;6.53;2.05;;;;;;;;;;4976971;28;20050;-76
2022/04/08 12:30:17;;;;;;;4.90;1.80;;;;;;;;;;4974987;28;20090;-76
2022/04/08 12:32:43;;;;;;;5.97;1.70;;;;;;;;;;4977455;28;20042;-77
2022/04/08 12:35:10;;;;;;;3.88;1.60;;;;;;;;;;4977694;28;20026;-77
2022/04/08 12:37:35;;;;;;;3.80;1.42;;;;;;;;;;4975765;28;20058;-76
2022/04/08 12:40:01;;;;;;;5.50;1.88;;;;;;;;;;4977870;28;20027;-77
2022/04/08 12:42:26;;;;;;;4.18;1.75;;;;;;;;;;4974726;28;20034;-76
2022/04/08 12:44:52;;;;;;;3.50;1.85;;;;;;;;;;4971707;28;20033;-76
2022/04/08 12:47:17;;;;;;;9.10;1.77;;;;;;;;;;4975712;28;20081;-77
2022/04/08 12:49:42;;;;;;;3.75;1.63;;;;;;;;;;4974963;28;20022;-77
2022/04/08 12:52:07;;;;;;;6.20;1.95;;;;;;;;;;4975489;28;20050;-76
2022/04/08 12:54:33;;;;;;;4.07;1.95;;;;;;;;;;4975675;28;20035;-76
2022/04/08 12:56:58;;;;;;;7.20;2.15;;;;;;;;;;4975428;28;20077;-76
2022/04/08 12:59:23;;;;;;;4.20;1.70;;;;;;;;;;4975418;28;20023;-77
2022/04/08 13:01:48;;;;;;;4.50;2.17;;;;;;;;;;4976432;28;20022;-77
2022/04/08 13:04:14;;;;;;;11.65;2.25;;;;;;;;;;4976799;28;20065;-75
2022/04/08 13:06:39;;;;;;;7.65;3.05;;;;;;;;;;4977151;28;20406;-78
2022/04/08 13:09:04;;;;;;;3.70;2.10;;;;;;;;;;4975976;28;20038;-77
2022/04/08 13:11:29;;;;;;;5.20;2.38;;;;;;;;;;4973008;28;20023;-76
2022/04/08 13:13:55;;;;;;;4.65;2.08;;;;;;;;;;4970819;28;20027;-76
2022/04/08 13:16:20;;;;;;;4.28;2.10;;;;;;;;;;4972832;28;20441;-76
2022/04/08 13:18:45;;;;;;;10.57;2.38;;;;;;;;;;4972257;28;20482;-77
2022/04/08 13:21:13;;;;;;;5.53;1.95;;;;;;;;;;4972428;28;20505;-77
2022/04/08 13:23:39;;;;;;;8.43;2.28;;;;;;;;;;4970966;28;20567;-76
2022/04/08 13:26:04;;;;;;;6.60;2.50;;;;;;;;;;4972359;28;20054;-77
2022/04/08 13:28:29;;;;;;;3.22;1.80;;;;;;;;;;4972157;28;20022;-78
2022/04/08 13:30:54;;;;;;;4.90;2.67;;;;;;;;;;4972167;28;20046;-77
2022/04/08 13:33:20;;;;;;;5.95;2.67;;;;;;;;;;4970378;28;20106;-77
2022/04/08 13:35:45;;;;;;;9.23;3.33;;;;;;;;;;4971464;28;20433;-75
2022/04/08 13:38:10;;;;;;;7.45;2.60;;;;;;;;;;4972164;28;20500;-77
2022/04/08 13:40:35;;;;;;;5.82;2.33;;;;;;;;;;4972381;28;20019;-76
2022/04/08 13:43:02;;;;;;;4.20;2.05;;;;;;;;;;4972051;28;20015;-76
2022/04/08 13:45:27;;;;;;;4.05;2.08;;;;;;;;;;4972209;28;20026;-78
2022/04/08 13:47:52;;;;;;;5.25;2.33;;;;;;;;;;4972718;28;20022;-78
2022/04/08 13:50:18;;;;;;;6.10;2.65;;;;;;;;;;4974988;28;20105;-76
2022/04/08 13:52:43;;;;;;;5.57;2.45;;;;;;;;;;4975064;28;20023;-76
2022/04/08 13:55:08;;;;;;;6.78;2.40;;;;;;;;;;4974219;28;20430;-75
2022/04/08 13:57:33;;;;;;;5.82;2.97;;;;;;;;;;4975993;28;20038;-76
2022/04/08 13:59:59;;;;;;;10.25;2.70;;;;;;;;;;4975866;28;20462;-76
2022/04/08 14:02:25;;;;;;;4.30;2.22;;;;;;;;;;4975572;28;20014;-76
2022/04/08 14:04:50;;;;;;;5.28;2.60;;;;;;;;;;4973490;28;20023;-76
2022/04/08 14:07:15;;;;;;;5.53;2.42;;;;;;;;;;4975325;28;20023;-76
2022/04/08 14:09:40;;;;;;;6.72;2.40;;;;;;;;;;4974820;28;20093;-76
2022/04/08 14:12:06;;;;;;;6.03;2.50;;;;;;;;;;4975000;28;20015;-77
2022/04/08 14:14:31;;;;;;;7.95;2.63;;;;;;;;;;4973706;28;20030;-77
2022/04/08 14:16:56;;;;;;;6.13;2.50;;;;;;;;;;4975738;28;20061;-77
2022/04/08 14:19:21;;;;;;;3.65;2.00;;;;;;;;;;4975022;28;20047;-77
2022/04/08 14:21:47;;;;;;;4.93;2.17;;;;;;;;;;4974850;28;20023;-77
2022/04/08 14:24:12;;;;;;;5.15;2.35;;;;;;;;;;4974613;28;20027;-76
2022/04/08 14:26:37;;;;;;;4.53;2.47;;;;;;;;;;4974977;28;20058;-76
2022/04/08 14:29:02;;;;;;;7.72;2.58;;;;;;;;;;4974866;28;20049;-76
2022/04/08 14:31:28;;;;;;;4.65;2.55;;;;;;;;;;4975020;28;20026;-76
2022/04/08 14:33:54;;;;;;;6.95;2.67;;;;;;;;;;4973379;28;20026;-77
2022/04/08 14:36:19;;;;;;;5.72;2.60;;;;;;;;;;4974777;28;20029;-77
2022/04/08 14:38:44;;;;;;;7.03;2.20;;;;;;;;;;4974551;28;20479;-77
2022/04/08 14:41:09;;;;;;;5.35;2.03;;;;;;;;;;4974737;28;20026;-77
2022/04/08 14:43:35;;;;;;;8.07;2.50;;;;;;;;;;4973052;28;20102;-76
2022/04/08 14:46:00;;;;;;;5.65;2.17;;;;;;;;;;4974471;28;20021;-78
2022/04/08 14:48:25;;;;;;;9.23;2.70;;;;;;;;;;4973564;28;20030;-77
2022/04/08 14:50:51;;;;;;;6.50;2.70;;;;;;;;;;4974497;28;20031;-77
2022/04/08 14:53:16;;;;;;;4.93;2.50;;;;;;;;;;4972871;28;20467;-77
2022/04/08 14:55:42;;;;;;;6.15;2.80;;;;;;;;;;4973024;28;20046;-76
2022/04/08 14:58:07;;;;;;;5.63;2.30;;;;;;;;;;4972865;28;20521;-76
2022/04/08 15:00:32;;;;;;;4.50;2.72;;;;;;;;;;4973591;28;20312;-78
2022/04/08 15:02:58;;;;;;;6.75;2.70;;;;;;;;;;4974548;28;20538;-79
2022/04/08 15:05:23;;;;;;;7.55;2.55;;;;;;;;;;4973979;28;20034;-76
2022/04/08 15:07:48;;;;;;;5.72;2.47;;;;;;;;;;4973925;28;20035;-77
2022/04/08 15:10:15;;;;;;;4.70;2.45;;;;;;;;;;4973662;28;20491;-78
2022/04/08 15:12:40;;;;;;;5.65;2.53;;;;;;;;;;4973734;28;20026;-77
2022/04/08 15:15:06;;;;;;;4.22;2.22;;;;;;;;;;4973819;28;20023;-78
2022/04/08 15:17:31;;;;;;;6.05;2.55;;;;;;;;;;4973424;28;20522;-79
2022/04/08 15:19:57;;;;;;;5.95;2.33;;;;;;;;;;4973883;28;20422;-77
2022/04/08 15:22:25;;;;;;;7.57;3.00;;;;;;;;;;4973610;28;20371;-78
2022/04/08 15:24:50;;;;;;;5.47;2.33;;;;;;;;;;4972490;28;20053;-78
2022/04/08 15:27:15;;;;;;;5.25;2.55;;;;;;;;;;4973630;28;20101;-78
2022/04/08 15:29:41;;;;;;;5.05;2.03;;;;;;;;;;4972326;28;20371;-76
2022/04/08 15:32:06;;;;;;;3.15;1.60;;;;;;;;;;4975182;28;20134;-77
2022/04/08 15:34:31;;;;;;;6.72;1.20;;;;;;;;;;4975679;28;20153;-77
2022/04/08 15:36:56;;;;;;;3.05;1.00;;;;;;;;;;4974857;28;20034;-76
2022/04/08 15:39:23;;;;;;;3.28;1.40;;;;;;;;;;4975416;28;20385;-77
2022/04/08 15:41:50;;;;;;;5.88;1.65;;;;;;;;;;4973380;28;20027;-76
2022/04/08 15:44:15;;;;;;;5.85;0.95;;;;;;;;;;4973879;28;20111;-77